sensor_id;sensor_type;location;lat;lon;timestamp;P1;durP1;ratioP1;P2;durP2;ratioP2
23573;SDS011;11965;53.640;10.050;2023-05-07T00:01:38;14.46;;;14.46;;
23573;SDS011;11965;53.640;10.050;2023-05-07T00:04:05;14.05;;;14.05;;
23573;SDS011;11965;53.640;10.050;2023-05-07T00:06:32;14.52;;;14.49;;
23573;SDS011;11965;53.640;10.050;2023-05-07T00:08:59;13.51;;;13.51;;
23573;SDS011;11965;53.640;10.050;2023-05-07T00:11:27;13.87;;;13.82;;
23573;SDS011;11965;53.640;10.050;2023-05-07T00:13:54;13.97;;;13.97;;
23573;SDS011;11965;53.640;10.050;2023-05-07T00:16:21;13.56;;;13.56;;
23573;SDS011;11965;53.640;10.050;2023-05-07T00:18:49;13.92;;;13.91;;
23573;SDS011;11965;53.640;10.050;2023-05-07T00:21:19;14.03;;;14.01;;
23573;SDS011;11965;53.640;10.050;2023-05-07T00:23:46;13.95;;;13.94;;
23573;SDS011;11965;53.640;10.050;2023-05-07T00:26:13;13.81;;;13.81;;
23573;SDS011;11965;53.640;10.050;2023-05-07T00:28:46;14.23;;;14.23;;
23573;SDS011;11965;53.640;10.050;2023-05-07T00:31:14;13.90;;;13.90;;
23573;SDS011;11965;53.640;10.050;2023-05-07T00:33:41;14.06;;;14.02;;
23573;SDS011;11965;53.640;10.050;2023-05-07T00:36:10;13.79;;;13.79;;
23573;SDS011;11965;53.640;10.050;2023-05-07T00:38:36;13.29;;;13.29;;
23573;SDS011;11965;53.640;10.050;2023-05-07T00:41:03;13.92;;;13.92;;
23573;SDS011;11965;53.640;10.050;2023-05-07T00:43:30;14.20;;;14.20;;
23573;SDS011;11965;53.640;10.050;2023-05-07T00:45:58;14.14;;;14.13;;
23573;SDS011;11965;53.640;10.050;2023-05-07T00:48:25;14.00;;;14.00;;
23573;SDS011;11965;53.640;10.050;2023-05-07T00:50:53;13.97;;;13.97;;
23573;SDS011;11965;53.640;10.050;2023-05-07T00:53:22;14.64;;;14.61;;
23573;SDS011;11965;53.640;10.050;2023-05-07T00:55:49;13.90;;;13.81;;
23573;SDS011;11965;53.640;10.050;2023-05-07T00:58:19;14.31;;;14.31;;
23573;SDS011;11965;53.640;10.050;2023-05-07T01:00:47;13.73;;;13.72;;
23573;SDS011;11965;53.640;10.050;2023-05-07T01:03:14;14.05;;;14.05;;
23573;SDS011;11965;53.640;10.050;2023-05-07T01:05:41;13.63;;;13.63;;
23573;SDS011;11965;53.640;10.050;2023-05-07T01:08:12;13.66;;;13.65;;
23573;SDS011;11965;53.640;10.050;2023-05-07T01:10:42;13.66;;;13.56;;
23573;SDS011;11965;53.640;10.050;2023-05-07T01:13:11;13.73;;;13.64;;
23573;SDS011;11965;53.640;10.050;2023-05-07T01:15:41;13.85;;;13.83;;
23573;SDS011;11965;53.640;10.050;2023-05-07T01:18:09;14.56;;;14.49;;
23573;SDS011;11965;53.640;10.050;2023-05-07T01:20:36;14.15;;;14.07;;
23573;SDS011;11965;53.640;10.050;2023-05-07T01:23:05;13.55;;;13.43;;
23573;SDS011;11965;53.640;10.050;2023-05-07T01:25:33;14.26;;;14.26;;
23573;SDS011;11965;53.640;10.050;2023-05-07T01:28:01;13.60;;;13.60;;
23573;SDS011;11965;53.640;10.050;2023-05-07T01:30:45;13.68;;;13.68;;
23573;SDS011;11965;53.640;10.050;2023-05-07T01:33:18;14.31;;;14.31;;
23573;SDS011;11965;53.640;10.050;2023-05-07T01:35:48;13.97;;;13.95;;
23573;SDS011;11965;53.640;10.050;2023-05-07T01:38:21;14.35;;;14.16;;
23573;SDS011;11965;53.640;10.050;2023-05-07T01:40:50;13.66;;;13.62;;
23573;SDS011;11965;53.640;10.050;2023-05-07T01:43:18;12.94;;;12.94;;
23573;SDS011;11965;53.640;10.050;2023-05-07T01:45:46;12.98;;;12.98;;
23573;SDS011;11965;53.640;10.050;2023-05-07T01:48:14;12.41;;;12.27;;
23573;SDS011;11965;53.640;10.050;2023-05-07T01:50:42;12.18;;;12.00;;
23573;SDS011;11965;53.640;10.050;2023-05-07T01:53:10;12.26;;;12.25;;
23573;SDS011;11965;53.640;10.050;2023-05-07T01:55:38;12.15;;;12.10;;
23573;SDS011;11965;53.640;10.050;2023-05-07T01:58:06;12.86;;;12.81;;
23573;SDS011;11965;53.640;10.050;2023-05-07T02:00:33;12.48;;;12.48;;
23573;SDS011;11965;53.640;10.050;2023-05-07T02:03:00;11.67;;;11.67;;
23573;SDS011;11965;53.640;10.050;2023-05-07T02:05:47;12.56;;;12.46;;
23573;SDS011;11965;53.640;10.050;2023-05-07T02:08:34;12.46;;;12.46;;
23573;SDS011;11965;53.640;10.050;2023-05-07T02:11:03;12.14;;;12.14;;
23573;SDS011;11965;53.640;10.050;2023-05-07T02:13:32;11.41;;;11.41;;
23573;SDS011;11965;53.640;10.050;2023-05-07T02:16:00;12.07;;;11.97;;
23573;SDS011;11965;53.640;10.050;2023-05-07T02:18:27;12.05;;;11.86;;
23573;SDS011;11965;53.640;10.050;2023-05-07T02:20:54;12.15;;;12.14;;
23573;SDS011;11965;53.640;10.050;2023-05-07T02:23:22;11.81;;;11.80;;
23573;SDS011;11965;53.640;10.050;2023-05-07T02:25:52;11.93;;;11.93;;
23573;SDS011;11965;53.640;10.050;2023-05-07T02:28:20;11.95;;;11.92;;
23573;SDS011;11965;53.640;10.050;2023-05-07T02:31:05;11.66;;;11.66;;
23573;SDS011;11965;53.640;10.050;2023-05-07T02:33:35;12.25;;;12.25;;
23573;SDS011;11965;53.640;10.050;2023-05-07T02:36:05;11.85;;;11.85;;
23573;SDS011;11965;53.640;10.050;2023-05-07T02:38:34;12.11;;;12.11;;
23573;SDS011;11965;53.640;10.050;2023-05-07T02:41:01;12.93;;;12.93;;
23573;SDS011;11965;53.640;10.050;2023-05-07T02:43:30;12.70;;;12.70;;
23573;SDS011;11965;53.640;10.050;2023-05-07T02:46:00;12.72;;;12.72;;
23573;SDS011;11965;53.640;10.050;2023-05-07T02:48:28;12.41;;;12.07;;
23573;SDS011;11965;53.640;10.050;2023-05-07T02:50:57;11.73;;;11.70;;
23573;SDS011;11965;53.640;10.050;2023-05-07T02:53:25;12.01;;;12.01;;
23573;SDS011;11965;53.640;10.050;2023-05-07T02:55:52;11.64;;;11.64;;
23573;SDS011;11965;53.640;10.050;2023-05-07T02:58:19;11.51;;;11.50;;
23573;SDS011;11965;53.640;10.050;2023-05-07T03:00:47;12.34;;;12.33;;
23573;SDS011;11965;53.640;10.050;2023-05-07T03:03:41;12.59;;;12.59;;
23573;SDS011;11965;53.640;10.050;2023-05-07T03:06:08;12.96;;;12.85;;
23573;SDS011;11965;53.640;10.050;2023-05-07T03:08:35;12.72;;;12.70;;
23573;SDS011;11965;53.640;10.050;2023-05-07T03:11:02;12.40;;;12.40;;
23573;SDS011;11965;53.640;10.050;2023-05-07T03:13:30;13.06;;;13.06;;
23573;SDS011;11965;53.640;10.050;2023-05-07T03:15:58;12.96;;;12.96;;
23573;SDS011;11965;53.640;10.050;2023-05-07T03:18:25;12.95;;;12.95;;
23573;SDS011;11965;53.640;10.050;2023-05-07T03:20:53;13.49;;;13.49;;
23573;SDS011;11965;53.640;10.050;2023-05-07T03:23:19;13.28;;;13.26;;
23573;SDS011;11965;53.640;10.050;2023-05-07T03:25:46;13.95;;;13.88;;
23573;SDS011;11965;53.640;10.050;2023-05-07T03:28:14;13.65;;;13.46;;
23573;SDS011;11965;53.640;10.050;2023-05-07T03:30:47;13.67;;;13.67;;
23573;SDS011;11965;53.640;10.050;2023-05-07T03:33:15;13.56;;;13.52;;
23573;SDS011;11965;53.640;10.050;2023-05-07T03:35:42;12.86;;;12.78;;
23573;SDS011;11965;53.640;10.050;2023-05-07T03:38:09;12.50;;;12.50;;
23573;SDS011;11965;53.640;10.050;2023-05-07T03:40:37;12.50;;;12.50;;
23573;SDS011;11965;53.640;10.050;2023-05-07T03:43:04;12.60;;;12.60;;
23573;SDS011;11965;53.640;10.050;2023-05-07T03:45:34;13.65;;;13.65;;
23573;SDS011;11965;53.640;10.050;2023-05-07T03:48:12;13.00;;;13.00;;
23573;SDS011;11965;53.640;10.050;2023-05-07T03:50:40;13.01;;;13.01;;
23573;SDS011;11965;53.640;10.050;2023-05-07T03:53:07;13.42;;;13.42;;
23573;SDS011;11965;53.640;10.050;2023-05-07T03:55:37;13.22;;;13.22;;
23573;SDS011;11965;53.640;10.050;2023-05-07T03:58:05;13.16;;;13.16;;
23573;SDS011;11965;53.640;10.050;2023-05-07T04:00:32;13.62;;;13.62;;
23573;SDS011;11965;53.640;10.050;2023-05-07T04:03:08;13.30;;;13.28;;
23573;SDS011;11965;53.640;10.050;2023-05-07T04:05:35;13.91;;;13.77;;
23573;SDS011;11965;53.640;10.050;2023-05-07T04:08:04;13.35;;;13.35;;
23573;SDS011;11965;53.640;10.050;2023-05-07T04:10:37;12.43;;;12.43;;
23573;SDS011;11965;53.640;10.050;2023-05-07T04:13:07;12.71;;;12.71;;
23573;SDS011;11965;53.640;10.050;2023-05-07T04:15:35;12.60;;;12.57;;
23573;SDS011;11965;53.640;10.050;2023-05-07T04:18:04;13.11;;;13.10;;
23573;SDS011;11965;53.640;10.050;2023-05-07T04:20:33;12.67;;;12.67;;
23573;SDS011;11965;53.640;10.050;2023-05-07T04:23:03;12.83;;;12.83;;
23573;SDS011;11965;53.640;10.050;2023-05-07T04:25:31;13.06;;;13.06;;
23573;SDS011;11965;53.640;10.050;2023-05-07T04:28:06;12.19;;;12.19;;
23573;SDS011;11965;53.640;10.050;2023-05-07T04:30:33;13.07;;;13.07;;
23573;SDS011;11965;53.640;10.050;2023-05-07T04:33:02;12.89;;;12.89;;
23573;SDS011;11965;53.640;10.050;2023-05-07T04:35:30;12.29;;;12.29;;
23573;SDS011;11965;53.640;10.050;2023-05-07T04:37:57;12.53;;;12.53;;
23573;SDS011;11965;53.640;10.050;2023-05-07T04:40:26;12.61;;;12.61;;
23573;SDS011;11965;53.640;10.050;2023-05-07T04:42:53;12.55;;;12.55;;
23573;SDS011;11965;53.640;10.050;2023-05-07T04:45:21;12.49;;;12.48;;
23573;SDS011;11965;53.640;10.050;2023-05-07T04:47:49;12.09;;;12.08;;
23573;SDS011;11965;53.640;10.050;2023-05-07T04:50:17;12.14;;;12.13;;
23573;SDS011;11965;53.640;10.050;2023-05-07T04:52:46;12.34;;;12.34;;
23573;SDS011;11965;53.640;10.050;2023-05-07T04:55:13;11.81;;;11.81;;
23573;SDS011;11965;53.640;10.050;2023-05-07T04:57:43;12.08;;;12.03;;
23573;SDS011;11965;53.640;10.050;2023-05-07T05:00:13;11.54;;;11.51;;
23573;SDS011;11965;53.640;10.050;2023-05-07T05:02:43;11.73;;;11.65;;
23573;SDS011;11965;53.640;10.050;2023-05-07T05:05:12;11.37;;;11.35;;
23573;SDS011;11965;53.640;10.050;2023-05-07T05:07:40;10.42;;;10.38;;
23573;SDS011;11965;53.640;10.050;2023-05-07T05:10:07;10.75;;;10.75;;
23573;SDS011;11965;53.640;10.050;2023-05-07T05:12:36;10.28;;;10.28;;
23573;SDS011;11965;53.640;10.050;2023-05-07T05:15:06;10.00;;;9.91;;
23573;SDS011;11965;53.640;10.050;2023-05-07T05:17:35;10.40;;;10.40;;
23573;SDS011;11965;53.640;10.050;2023-05-07T05:20:04;9.95;;;9.95;;
23573;SDS011;11965;53.640;10.050;2023-05-07T05:22:32;10.37;;;10.37;;
23573;SDS011;11965;53.640;10.050;2023-05-07T05:25:00;11.06;;;11.06;;
23573;SDS011;11965;53.640;10.050;2023-05-07T05:27:28;10.48;;;10.48;;
23573;SDS011;11965;53.640;10.050;2023-05-07T05:29:55;10.77;;;10.77;;
23573;SDS011;11965;53.640;10.050;2023-05-07T05:32:24;10.59;;;10.59;;
23573;SDS011;11965;53.640;10.050;2023-05-07T05:34:54;10.87;;;10.87;;
23573;SDS011;11965;53.640;10.050;2023-05-07T05:37:21;11.27;;;11.27;;
23573;SDS011;11965;53.640;10.050;2023-05-07T05:39:49;10.89;;;10.89;;
23573;SDS011;11965;53.640;10.050;2023-05-07T05:42:16;11.05;;;11.05;;
23573;SDS011;11965;53.640;10.050;2023-05-07T05:44:43;10.96;;;10.96;;
23573;SDS011;11965;53.640;10.050;2023-05-07T05:47:10;10.96;;;10.95;;
23573;SDS011;11965;53.640;10.050;2023-05-07T05:49:39;11.27;;;11.26;;
23573;SDS011;11965;53.640;10.050;2023-05-07T05:52:07;11.08;;;11.08;;
23573;SDS011;11965;53.640;10.050;2023-05-07T05:54:34;10.89;;;10.89;;
23573;SDS011;11965;53.640;10.050;2023-05-07T05:57:01;11.55;;;11.50;;
23573;SDS011;11965;53.640;10.050;2023-05-07T05:59:29;11.06;;;11.05;;
23573;SDS011;11965;53.640;10.050;2023-05-07T06:01:56;10.97;;;10.97;;
23573;SDS011;11965;53.640;10.050;2023-05-07T06:04:24;10.68;;;10.68;;
23573;SDS011;11965;53.640;10.050;2023-05-07T06:06:52;11.01;;;11.01;;
23573;SDS011;11965;53.640;10.050;2023-05-07T06:09:20;10.33;;;10.33;;
23573;SDS011;11965;53.640;10.050;2023-05-07T06:11:50;10.77;;;10.77;;
23573;SDS011;11965;53.640;10.050;2023-05-07T06:14:17;10.84;;;10.84;;
23573;SDS011;11965;53.640;10.050;2023-05-07T06:16:44;10.97;;;10.97;;
23573;SDS011;11965;53.640;10.050;2023-05-07T06:19:11;10.35;;;10.35;;
23573;SDS011;11965;53.640;10.050;2023-05-07T06:21:39;10.32;;;10.32;;
23573;SDS011;11965;53.640;10.050;2023-05-07T06:24:08;10.19;;;10.19;;
23573;SDS011;11965;53.640;10.050;2023-05-07T06:26:37;10.62;;;10.62;;
23573;SDS011;11965;53.640;10.050;2023-05-07T06:29:04;10.25;;;10.22;;
23573;SDS011;11965;53.640;10.050;2023-05-07T06:31:31;9.98;;;9.98;;
23573;SDS011;11965;53.640;10.050;2023-05-07T06:34:02;9.85;;;9.85;;
23573;SDS011;11965;53.640;10.050;2023-05-07T06:36:35;9.96;;;9.96;;
23573;SDS011;11965;53.640;10.050;2023-05-07T06:39:18;9.88;;;9.88;;
23573;SDS011;11965;53.640;10.050;2023-05-07T06:41:47;9.82;;;9.82;;
23573;SDS011;11965;53.640;10.050;2023-05-07T06:44:22;9.74;;;9.74;;
23573;SDS011;11965;53.640;10.050;2023-05-07T06:47:06;9.78;;;9.78;;
23573;SDS011;11965;53.640;10.050;2023-05-07T06:49:33;9.88;;;9.88;;
23573;SDS011;11965;53.640;10.050;2023-05-07T06:52:00;9.73;;;9.73;;
23573;SDS011;11965;53.640;10.050;2023-05-07T06:54:29;10.04;;;10.04;;
23573;SDS011;11965;53.640;10.050;2023-05-07T06:56:57;10.12;;;10.12;;
23573;SDS011;11965;53.640;10.050;2023-05-07T06:59:26;9.57;;;9.57;;
23573;SDS011;11965;53.640;10.050;2023-05-07T07:01:53;9.47;;;9.47;;
23573;SDS011;11965;53.640;10.050;2023-05-07T07:04:21;9.86;;;9.86;;
23573;SDS011;11965;53.640;10.050;2023-05-07T07:06:57;9.72;;;9.72;;
23573;SDS011;11965;53.640;10.050;2023-05-07T07:09:24;9.83;;;9.83;;
23573;SDS011;11965;53.640;10.050;2023-05-07T07:11:54;9.67;;;9.67;;
23573;SDS011;11965;53.640;10.050;2023-05-07T07:14:21;9.13;;;9.13;;
23573;SDS011;11965;53.640;10.050;2023-05-07T07:16:50;9.56;;;9.56;;
23573;SDS011;11965;53.640;10.050;2023-05-07T07:19:19;9.29;;;9.29;;
23573;SDS011;11965;53.640;10.050;2023-05-07T07:21:48;9.31;;;9.31;;
23573;SDS011;11965;53.640;10.050;2023-05-07T07:24:16;9.26;;;9.26;;
23573;SDS011;11965;53.640;10.050;2023-05-07T07:26:47;8.72;;;8.71;;
23573;SDS011;11965;53.640;10.050;2023-05-07T07:29:16;9.49;;;9.46;;
23573;SDS011;11965;53.640;10.050;2023-05-07T07:31:44;9.22;;;9.22;;
23573;SDS011;11965;53.640;10.050;2023-05-07T07:34:11;8.69;;;8.68;;
23573;SDS011;11965;53.640;10.050;2023-05-07T07:36:38;9.10;;;9.10;;
23573;SDS011;11965;53.640;10.050;2023-05-07T07:39:05;8.96;;;8.96;;
23573;SDS011;11965;53.640;10.050;2023-05-07T07:41:32;8.50;;;8.50;;
23573;SDS011;11965;53.640;10.050;2023-05-07T07:44:00;8.88;;;8.88;;
23573;SDS011;11965;53.640;10.050;2023-05-07T07:46:30;9.02;;;9.02;;
23573;SDS011;11965;53.640;10.050;2023-05-07T07:48:57;9.10;;;9.10;;
23573;SDS011;11965;53.640;10.050;2023-05-07T07:51:26;8.96;;;8.96;;
23573;SDS011;11965;53.640;10.050;2023-05-07T07:53:55;8.81;;;8.81;;
23573;SDS011;11965;53.640;10.050;2023-05-07T07:56:23;8.54;;;8.54;;
23573;SDS011;11965;53.640;10.050;2023-05-07T07:58:50;8.65;;;8.65;;
23573;SDS011;11965;53.640;10.050;2023-05-07T08:01:18;8.42;;;8.42;;
23573;SDS011;11965;53.640;10.050;2023-05-07T08:03:48;8.82;;;8.82;;
23573;SDS011;11965;53.640;10.050;2023-05-07T08:06:16;8.40;;;8.40;;
23573;SDS011;11965;53.640;10.050;2023-05-07T08:08:43;8.56;;;8.56;;
23573;SDS011;11965;53.640;10.050;2023-05-07T08:11:10;8.63;;;8.63;;
23573;SDS011;11965;53.640;10.050;2023-05-07T08:13:37;9.07;;;9.07;;
23573;SDS011;11965;53.640;10.050;2023-05-07T08:16:05;9.09;;;9.09;;
23573;SDS011;11965;53.640;10.050;2023-05-07T08:18:33;9.16;;;9.16;;
23573;SDS011;11965;53.640;10.050;2023-05-07T08:21:03;9.23;;;9.23;;
23573;SDS011;11965;53.640;10.050;2023-05-07T08:23:31;9.11;;;9.11;;
23573;SDS011;11965;53.640;10.050;2023-05-07T08:26:00;9.02;;;9.02;;
23573;SDS011;11965;53.640;10.050;2023-05-07T08:28:28;8.86;;;8.86;;
23573;SDS011;11965;53.640;10.050;2023-05-07T08:30:55;8.81;;;8.81;;
23573;SDS011;11965;53.640;10.050;2023-05-07T08:33:25;8.71;;;8.71;;
23573;SDS011;11965;53.640;10.050;2023-05-07T08:35:52;8.97;;;8.97;;
23573;SDS011;11965;53.640;10.050;2023-05-07T08:38:20;8.77;;;8.77;;
23573;SDS011;11965;53.640;10.050;2023-05-07T08:40:48;8.76;;;8.76;;
23573;SDS011;11965;53.640;10.050;2023-05-07T08:43:18;8.56;;;8.56;;
23573;SDS011;11965;53.640;10.050;2023-05-07T08:45:46;8.28;;;8.28;;
23573;SDS011;11965;53.640;10.050;2023-05-07T08:48:21;7.85;;;7.85;;
23573;SDS011;11965;53.640;10.050;2023-05-07T08:51:03;8.44;;;8.44;;
23573;SDS011;11965;53.640;10.050;2023-05-07T08:53:31;8.08;;;8.08;;
23573;SDS011;11965;53.640;10.050;2023-05-07T08:56:00;8.03;;;8.03;;
23573;SDS011;11965;53.640;10.050;2023-05-07T08:58:29;8.36;;;8.36;;
23573;SDS011;11965;53.640;10.050;2023-05-07T09:00:56;8.37;;;8.37;;
23573;SDS011;11965;53.640;10.050;2023-05-07T09:03:25;8.21;;;8.21;;
23573;SDS011;11965;53.640;10.050;2023-05-07T09:05:54;8.06;;;8.06;;
23573;SDS011;11965;53.640;10.050;2023-05-07T09:08:24;8.24;;;8.24;;
23573;SDS011;11965;53.640;10.050;2023-05-07T09:10:55;8.04;;;8.04;;
23573;SDS011;11965;53.640;10.050;2023-05-07T09:13:22;8.30;;;8.30;;
23573;SDS011;11965;53.640;10.050;2023-05-07T09:15:50;8.15;;;8.15;;
23573;SDS011;11965;53.640;10.050;2023-05-07T09:18:17;8.27;;;8.27;;
23573;SDS011;11965;53.640;10.050;2023-05-07T09:20:46;7.95;;;7.95;;
23573;SDS011;11965;53.640;10.050;2023-05-07T09:23:16;7.68;;;7.68;;
23573;SDS011;11965;53.640;10.050;2023-05-07T09:25:43;7.40;;;7.40;;
23573;SDS011;11965;53.640;10.050;2023-05-07T09:28:19;7.15;;;7.15;;
23573;SDS011;11965;53.640;10.050;2023-05-07T09:30:46;7.42;;;7.42;;
23573;SDS011;11965;53.640;10.050;2023-05-07T09:33:14;7.10;;;7.10;;
23573;SDS011;11965;53.640;10.050;2023-05-07T09:35:46;6.98;;;6.98;;
23573;SDS011;11965;53.640;10.050;2023-05-07T09:38:18;7.15;;;7.15;;
23573;SDS011;11965;53.640;10.050;2023-05-07T09:41:01;6.88;;;6.88;;
23573;SDS011;11965;53.640;10.050;2023-05-07T09:43:35;6.97;;;6.97;;
23573;SDS011;11965;53.640;10.050;2023-05-07T09:46:07;7.72;;;7.72;;
23573;SDS011;11965;53.640;10.050;2023-05-07T09:48:39;7.32;;;7.32;;
23573;SDS011;11965;53.640;10.050;2023-05-07T09:51:19;7.02;;;7.02;;
23573;SDS011;11965;53.640;10.050;2023-05-07T09:53:53;7.17;;;7.17;;
23573;SDS011;11965;53.640;10.050;2023-05-07T09:56:21;7.40;;;7.40;;
23573;SDS011;11965;53.640;10.050;2023-05-07T09:58:51;7.11;;;7.11;;
23573;SDS011;11965;53.640;10.050;2023-05-07T10:01:20;7.25;;;7.25;;
23573;SDS011;11965;53.640;10.050;2023-05-07T10:03:49;7.36;;;7.36;;
23573;SDS011;11965;53.640;10.050;2023-05-07T10:06:18;7.10;;;7.10;;
23573;SDS011;11965;53.640;10.050;2023-05-07T10:08:47;7.25;;;7.25;;
23573;SDS011;11965;53.640;10.050;2023-05-07T10:11:15;6.71;;;6.71;;
23573;SDS011;11965;53.640;10.050;2023-05-07T10:13:43;7.22;;;7.22;;
23573;SDS011;11965;53.640;10.050;2023-05-07T10:16:14;7.60;;;7.60;;
23573;SDS011;11965;53.640;10.050;2023-05-07T10:18:45;7.71;;;7.71;;
23573;SDS011;11965;53.640;10.050;2023-05-07T10:21:18;7.22;;;7.22;;
23573;SDS011;11965;53.640;10.050;2023-05-07T10:23:49;7.24;;;7.24;;
23573;SDS011;11965;53.640;10.050;2023-05-07T10:26:20;6.94;;;6.94;;
23573;SDS011;11965;53.640;10.050;2023-05-07T10:28:53;6.98;;;6.98;;
23573;SDS011;11965;53.640;10.050;2023-05-07T10:31:32;6.87;;;6.87;;
23573;SDS011;11965;53.640;10.050;2023-05-07T10:34:16;6.78;;;6.78;;
23573;SDS011;11965;53.640;10.050;2023-05-07T10:36:49;6.64;;;6.64;;
23573;SDS011;11965;53.640;10.050;2023-05-07T10:39:19;6.88;;;6.88;;
23573;SDS011;11965;53.640;10.050;2023-05-07T10:41:49;6.91;;;6.91;;
23573;SDS011;11965;53.640;10.050;2023-05-07T10:47:07;6.74;;;6.74;;
23573;SDS011;11965;53.640;10.050;2023-05-07T10:49:38;6.42;;;6.42;;
23573;SDS011;11965;53.640;10.050;2023-05-07T10:52:43;6.46;;;6.46;;
23573;SDS011;11965;53.640;10.050;2023-05-07T10:55:20;6.14;;;6.14;;
23573;SDS011;11965;53.640;10.050;2023-05-07T10:58:22;5.93;;;5.93;;
23573;SDS011;11965;53.640;10.050;2023-05-07T11:00:56;6.47;;;6.47;;
23573;SDS011;11965;53.640;10.050;2023-05-07T11:03:30;6.38;;;6.38;;
23573;SDS011;11965;53.640;10.050;2023-05-07T11:06:10;6.50;;;6.50;;
23573;SDS011;11965;53.640;10.050;2023-05-07T11:08:59;6.89;;;6.89;;
23573;SDS011;11965;53.640;10.050;2023-05-07T11:11:45;6.40;;;6.40;;
23573;SDS011;11965;53.640;10.050;2023-05-07T11:14:42;6.72;;;6.72;;
23573;SDS011;11965;53.640;10.050;2023-05-07T11:17:25;6.28;;;6.28;;
23573;SDS011;11965;53.640;10.050;2023-05-07T11:20:01;6.50;;;6.50;;
23573;SDS011;11965;53.640;10.050;2023-05-07T11:22:52;6.49;;;6.49;;
23573;SDS011;11965;53.640;10.050;2023-05-07T11:25:32;6.37;;;6.37;;
23573;SDS011;11965;53.640;10.050;2023-05-07T11:28:06;6.55;;;6.55;;
23573;SDS011;11965;53.640;10.050;2023-05-07T11:30:36;6.45;;;6.45;;
23573;SDS011;11965;53.640;10.050;2023-05-07T11:33:05;5.81;;;5.81;;
23573;SDS011;11965;53.640;10.050;2023-05-07T11:35:34;5.91;;;5.91;;
23573;SDS011;11965;53.640;10.050;2023-05-07T11:38:01;5.53;;;5.53;;
23573;SDS011;11965;53.640;10.050;2023-05-07T11:40:33;5.54;;;5.54;;
23573;SDS011;11965;53.640;10.050;2023-05-07T11:43:02;5.48;;;5.48;;
23573;SDS011;11965;53.640;10.050;2023-05-07T11:45:37;5.19;;;5.19;;
23573;SDS011;11965;53.640;10.050;2023-05-07T11:48:04;5.17;;;5.17;;
23573;SDS011;11965;53.640;10.050;2023-05-07T11:50:31;5.10;;;5.10;;
23573;SDS011;11965;53.640;10.050;2023-05-07T11:53:00;5.16;;;5.16;;
23573;SDS011;11965;53.640;10.050;2023-05-07T11:55:33;4.75;;;4.75;;
23573;SDS011;11965;53.640;10.050;2023-05-07T11:58:00;4.63;;;4.63;;
23573;SDS011;11965;53.640;10.050;2023-05-07T12:00:27;4.80;;;4.80;;
23573;SDS011;11965;53.640;10.050;2023-05-07T12:02:54;4.64;;;4.64;;
23573;SDS011;11965;53.640;10.050;2023-05-07T12:05:21;5.00;;;5.00;;
23573;SDS011;11965;53.640;10.050;2023-05-07T12:07:49;4.68;;;4.68;;
23573;SDS011;11965;53.640;10.050;2023-05-07T12:10:22;4.37;;;4.37;;
23573;SDS011;11965;53.640;10.050;2023-05-07T12:12:50;4.56;;;4.56;;
23573;SDS011;11965;53.640;10.050;2023-05-07T12:15:17;4.87;;;4.87;;
23573;SDS011;11965;53.640;10.050;2023-05-07T12:17:44;4.57;;;4.57;;
23573;SDS011;11965;53.640;10.050;2023-05-07T12:20:11;4.86;;;4.86;;
23573;SDS011;11965;53.640;10.050;2023-05-07T12:22:39;4.39;;;4.39;;
23573;SDS011;11965;53.640;10.050;2023-05-07T12:25:11;4.12;;;4.12;;
23573;SDS011;11965;53.640;10.050;2023-05-07T12:27:40;4.06;;;4.06;;
23573;SDS011;11965;53.640;10.050;2023-05-07T12:30:09;4.17;;;4.17;;
23573;SDS011;11965;53.640;10.050;2023-05-07T12:32:37;4.36;;;4.36;;
23573;SDS011;11965;53.640;10.050;2023-05-07T12:35:05;4.27;;;4.27;;
23573;SDS011;11965;53.640;10.050;2023-05-07T12:37:33;4.21;;;4.21;;
23573;SDS011;11965;53.640;10.050;2023-05-07T12:40:05;4.42;;;4.42;;
23573;SDS011;11965;53.640;10.050;2023-05-07T12:42:36;4.47;;;4.47;;
23573;SDS011;11965;53.640;10.050;2023-05-07T12:45:08;3.85;;;3.85;;
23573;SDS011;11965;53.640;10.050;2023-05-07T12:47:35;3.84;;;3.84;;
23573;SDS011;11965;53.640;10.050;2023-05-07T12:50:04;3.99;;;3.99;;
23573;SDS011;11965;53.640;10.050;2023-05-07T12:52:32;3.97;;;3.97;;
23573;SDS011;11965;53.640;10.050;2023-05-07T12:55:04;3.91;;;3.91;;
23573;SDS011;11965;53.640;10.050;2023-05-07T12:57:38;3.85;;;3.85;;
23573;SDS011;11965;53.640;10.050;2023-05-07T13:00:06;3.83;;;3.83;;
23573;SDS011;11965;53.640;10.050;2023-05-07T13:02:34;3.69;;;3.69;;
23573;SDS011;11965;53.640;10.050;2023-05-07T13:05:05;3.41;;;3.41;;
23573;SDS011;11965;53.640;10.050;2023-05-07T13:07:32;3.49;;;3.49;;
23573;SDS011;11965;53.640;10.050;2023-05-07T13:09:59;3.37;;;3.37;;
23573;SDS011;11965;53.640;10.050;2023-05-07T13:12:26;3.55;;;3.55;;
23573;SDS011;11965;53.640;10.050;2023-05-07T13:14:54;3.74;;;3.74;;
23573;SDS011;11965;53.640;10.050;2023-05-07T13:17:21;3.67;;;3.67;;
23573;SDS011;11965;53.640;10.050;2023-05-07T13:19:48;3.38;;;3.38;;
23573;SDS011;11965;53.640;10.050;2023-05-07T13:22:15;4.05;;;4.05;;
23573;SDS011;11965;53.640;10.050;2023-05-07T13:24:42;3.31;;;3.31;;
23573;SDS011;11965;53.640;10.050;2023-05-07T13:27:11;3.36;;;3.36;;
23573;SDS011;11965;53.640;10.050;2023-05-07T13:29:38;3.35;;;3.35;;
23573;SDS011;11965;53.640;10.050;2023-05-07T13:32:06;3.34;;;3.34;;
23573;SDS011;11965;53.640;10.050;2023-05-07T13:34:33;3.28;;;3.28;;
23573;SDS011;11965;53.640;10.050;2023-05-07T13:37:00;3.38;;;3.38;;
23573;SDS011;11965;53.640;10.050;2023-05-07T13:39:27;3.00;;;3.00;;
23573;SDS011;11965;53.640;10.050;2023-05-07T13:41:54;3.10;;;3.10;;
23573;SDS011;11965;53.640;10.050;2023-05-07T13:44:21;3.25;;;3.25;;
23573;SDS011;11965;53.640;10.050;2023-05-07T13:46:48;3.05;;;3.05;;
23573;SDS011;11965;53.640;10.050;2023-05-07T13:49:16;3.13;;;3.13;;
23573;SDS011;11965;53.640;10.050;2023-05-07T13:51:43;3.10;;;3.10;;
23573;SDS011;11965;53.640;10.050;2023-05-07T13:54:13;3.20;;;3.20;;
23573;SDS011;11965;53.640;10.050;2023-05-07T13:56:41;3.18;;;3.18;;
23573;SDS011;11965;53.640;10.050;2023-05-07T13:59:07;3.33;;;3.33;;
23573;SDS011;11965;53.640;10.050;2023-05-07T14:01:34;3.12;;;3.12;;
23573;SDS011;11965;53.640;10.050;2023-05-07T14:04:01;3.09;;;3.09;;
23573;SDS011;11965;53.640;10.050;2023-05-07T14:06:30;3.20;;;3.20;;
23573;SDS011;11965;53.640;10.050;2023-05-07T14:08:57;3.51;;;3.51;;
23573;SDS011;11965;53.640;10.050;2023-05-07T14:11:23;2.99;;;2.99;;
23573;SDS011;11965;53.640;10.050;2023-05-07T14:13:53;2.82;;;2.82;;
23573;SDS011;11965;53.640;10.050;2023-05-07T14:16:22;3.03;;;3.03;;
23573;SDS011;11965;53.640;10.050;2023-05-07T14:18:48;2.82;;;2.82;;
23573;SDS011;11965;53.640;10.050;2023-05-07T14:21:15;3.00;;;3.00;;
23573;SDS011;11965;53.640;10.050;2023-05-07T14:23:44;3.24;;;3.24;;
23573;SDS011;11965;53.640;10.050;2023-05-07T14:26:11;2.88;;;2.88;;
23573;SDS011;11965;53.640;10.050;2023-05-07T14:28:37;3.57;;;3.57;;
23573;SDS011;11965;53.640;10.050;2023-05-07T14:31:05;3.27;;;3.27;;
23573;SDS011;11965;53.640;10.050;2023-05-07T14:33:32;3.18;;;3.18;;
23573;SDS011;11965;53.640;10.050;2023-05-07T14:35:59;2.98;;;2.98;;
23573;SDS011;11965;53.640;10.050;2023-05-07T14:38:25;3.33;;;3.33;;
23573;SDS011;11965;53.640;10.050;2023-05-07T14:40:54;2.97;;;2.97;;